Terminal Aerodrome Forecast
Issued by NWS Binghamton, NY

Home | Current Version | Previous Version | Text Only | Print | Product List | Glossary On
Versions: 1 2 3 4 5 6 7 8 9 10 11 12 13 14 15 16
000
FTUS41 KBGM 061737 AAA
TAFAVP
TAF AMD
KAVP 061737Z 0618/0718 12005KT P6SM SCT050 OVC100
     FM062300 10005KT 5SM -RA BR OVC015
      TEMPO 0702/0706 1 1/2SM -RASN BR OVC008
     FM070800 VRB03KT 3SM -RA BR OVC008
     FM071100 VRB03KT P6SM OVC008
     FM071400 VRB03KT P6SM OVC015=

USA.gov is the U.S. government's official web portal to all federal, state and local government web resources and services.